createdAt,value
2022-08-07T00:04:09.305Z,0.30
2022-08-07T00:06:45.585Z,0.60
2022-08-07T00:09:29.123Z,0.30
2022-08-07T00:12:04.599Z,0.60
2022-08-07T00:14:32.472Z,0.50
2022-08-07T00:17:02.605Z,0.40
2022-08-07T00:19:59.567Z,0.40
2022-08-07T00:22:24.441Z,0.40
2022-08-07T00:25:07.382Z,0.30
2022-08-07T00:27:53.404Z,0.40
2022-08-07T00:30:27.382Z,0.60
2022-08-07T00:32:58.399Z,0.50
2022-08-07T00:35:30.006Z,0.30
2022-08-07T00:37:59.564Z,0.40
2022-08-07T00:40:39.859Z,0.40
2022-08-07T00:43:59.702Z,0.50
2022-08-07T00:46:01.875Z,0.40
2022-08-07T00:48:32.012Z,0.40
2022-08-07T00:51:02.814Z,0.40
2022-08-07T00:53:39.379Z,0.40
2022-08-07T00:56:18.742Z,0.50
2022-08-07T00:58:49.701Z,0.40
2022-08-07T01:01:20.581Z,0.30
2022-08-07T01:03:57.312Z,0.40
2022-08-07T01:06:29.649Z,0.50
2022-08-07T01:09:00.920Z,0.40
2022-08-07T01:12:23.969Z,0.50
2022-08-07T01:14:28.876Z,0.40
2022-08-07T01:16:59.315Z,0.50
2022-08-07T01:19:32.619Z,0.60
2022-08-07T01:22:03.129Z,0.80
2022-08-07T01:24:32.537Z,0.40
2022-08-07T01:27:01.580Z,0.50
2022-08-07T01:29:33.783Z,0.60
2022-08-07T01:32:05.404Z,0.50
2022-08-07T01:34:47.195Z,0.60
2022-08-07T01:37:17.489Z,0.30
2022-08-07T01:39:47.815Z,0.60
2022-08-07T01:42:39.284Z,0.40
2022-08-07T01:45:12.803Z,0.40
2022-08-07T01:48:20.174Z,0.50
2022-08-07T01:50:43.061Z,0.60
2022-08-07T01:53:20.957Z,0.70
2022-08-07T01:55:54.796Z,0.50
2022-08-07T01:58:29.428Z,0.40
2022-08-07T02:01:09.558Z,1.00
2022-08-07T02:03:48.775Z,0.50
2022-08-07T02:06:31.590Z,0.40
2022-08-07T02:09:05.247Z,0.50
2022-08-07T02:12:02.848Z,0.40
2022-08-07T02:14:40.504Z,0.50
2022-08-07T02:17:13.723Z,0.40
2022-08-07T02:22:41.464Z,0.50
2022-08-07T02:25:18.239Z,0.50
2022-08-07T02:27:52.244Z,0.40
2022-08-07T02:30:21.805Z,0.50
2022-08-07T02:33:01.064Z,0.50
2022-08-07T02:36:29.247Z,0.50
2022-08-07T02:38:36.931Z,0.40
2022-08-07T02:41:07.973Z,0.60
2022-08-07T02:43:43.323Z,0.60
2022-08-07T02:46:20.577Z,0.60
2022-08-07T02:48:55.097Z,0.50
2022-08-07T02:51:42.847Z,0.60
2022-08-07T02:54:18.550Z,0.60
2022-08-07T02:56:49.381Z,0.50
2022-08-07T02:59:23.979Z,0.40
2022-08-07T03:01:58.088Z,0.60
2022-08-07T03:04:31.232Z,0.50
2022-08-07T03:07:07.360Z,0.70
2022-08-07T03:09:42.133Z,0.50
2022-08-07T03:12:22.182Z,0.70
2022-08-07T03:14:52.846Z,0.40
2022-08-07T03:17:22.246Z,0.50
2022-08-07T03:19:55.512Z,0.50
2022-08-07T03:22:30.290Z,0.60
2022-08-07T03:25:00.302Z,0.60
2022-08-07T03:27:30.647Z,0.60
2022-08-07T03:30:11.151Z,0.60
2022-08-07T03:32:49.118Z,0.40
2022-08-07T03:35:43.471Z,0.50
2022-08-07T03:38:21.283Z,0.60
2022-08-07T03:40:57.873Z,0.40
2022-08-07T03:43:32.318Z,0.50
2022-08-07T03:46:04.207Z,0.40
2022-08-07T03:49:02.462Z,0.40
2022-08-07T03:51:47.825Z,0.70
2022-08-07T03:54:35.819Z,0.50
2022-08-07T03:58:35.203Z,0.60
2022-08-07T04:00:03.991Z,0.60
2022-08-07T04:02:32.718Z,0.40
2022-08-07T04:05:00.937Z,0.60
2022-08-07T04:07:41.661Z,0.60
2022-08-07T04:10:15.357Z,0.60
2022-08-07T04:12:44.083Z,0.70
2022-08-07T04:15:13.461Z,0.60
2022-08-07T04:18:57.865Z,0.60
2022-08-07T04:20:35.166Z,0.60
2022-08-07T04:23:06.649Z,0.60
2022-08-07T04:25:40.983Z,0.60
2022-08-07T04:28:13.397Z,0.60
2022-08-07T04:30:55.259Z,0.60
2022-08-07T04:33:26.338Z,0.60
2022-08-07T04:35:57.948Z,0.50
2022-08-07T04:38:26.951Z,0.60
2022-08-07T04:40:56.654Z,0.60
2022-08-07T04:44:11.994Z,0.60
2022-08-07T04:47:04.239Z,0.60
2022-08-07T04:49:42.494Z,0.80
2022-08-07T04:52:57.420Z,0.80
2022-08-07T04:58:23.957Z,1.00
2022-08-07T04:59:16.947Z,0.70
2022-08-07T05:01:56.280Z,0.70
2022-08-07T05:04:53.762Z,0.50
2022-08-07T05:07:37.026Z,0.90
2022-08-07T05:10:33.481Z,0.50
2022-08-07T05:14:56.348Z,0.60
2022-08-07T05:16:30.509Z,0.70
2022-08-07T05:19:10.421Z,0.70
2022-08-07T05:22:00.303Z,0.80
2022-08-07T05:24:40.427Z,0.60
2022-08-07T05:28:02.760Z,0.60
2022-08-07T05:30:03.912Z,0.70
2022-08-07T05:32:32.859Z,1.10
2022-08-07T05:35:02.701Z,0.80
2022-08-07T05:37:31.769Z,0.70
2022-08-07T05:40:17.747Z,0.80
2022-08-07T05:42:56.196Z,0.70
2022-08-07T05:45:46.285Z,0.70
2022-08-07T05:48:15.129Z,0.50
2022-08-07T05:50:43.548Z,0.70
2022-08-07T05:54:09.715Z,0.80
2022-08-07T05:56:03.099Z,0.70
2022-08-07T05:58:37.717Z,0.60
2022-08-07T06:01:11.441Z,0.70
2022-08-07T06:03:53.734Z,0.60
2022-08-07T06:06:29.722Z,0.70
2022-08-07T06:09:04.566Z,0.90
2022-08-07T06:11:34.999Z,0.60
2022-08-07T06:14:13.298Z,0.70
2022-08-07T06:16:56.365Z,0.50
2022-08-07T06:19:49.981Z,0.80
2022-08-07T06:22:23.318Z,1.00
2022-08-07T06:24:58.542Z,0.70
2022-08-07T06:27:44.142Z,0.60
2022-08-07T06:30:32.248Z,0.70
2022-08-07T06:33:15.780Z,0.60
2022-08-07T06:35:47.691Z,0.60
2022-08-07T06:38:20.604Z,0.60
2022-08-07T06:40:54.321Z,0.90
2022-08-07T06:43:25.334Z,0.70
2022-08-07T06:45:59.914Z,0.60
2022-08-07T06:48:29.009Z,0.50
2022-08-07T06:51:07.910Z,0.70
2022-08-07T06:54:11.934Z,0.50
2022-08-07T06:56:49.617Z,0.50
2022-08-07T07:00:14.269Z,0.80
2022-08-07T07:02:48.488Z,0.50
2022-08-07T07:05:13.989Z,0.60
2022-08-07T07:08:06.531Z,0.60
2022-08-07T07:10:36.045Z,0.60
2022-08-07T07:13:40.860Z,0.60
2022-08-07T07:16:22.370Z,0.50
2022-08-07T07:19:11.388Z,0.50
2022-08-07T07:22:11.689Z,1.10
2022-08-07T07:24:56.997Z,0.50
2022-08-07T07:27:56.411Z,0.70
2022-08-07T07:30:38.399Z,0.60
2022-08-07T07:33:17.240Z,0.60
2022-08-07T07:36:05.690Z,0.60
2022-08-07T07:44:14.158Z,0.30
2022-08-07T07:46:55.648Z,0.50
2022-08-07T07:50:33.455Z,0.50
2022-08-07T07:52:18.681Z,0.50
2022-08-07T07:54:50.606Z,0.70
2022-08-07T07:57:43.830Z,0.60
2022-08-07T08:00:21.155Z,0.60
2022-08-07T08:03:09.446Z,0.50
2022-08-07T08:05:54.924Z,0.60
2022-08-07T08:08:35.470Z,0.70
2022-08-07T08:11:09.288Z,0.40
2022-08-07T08:13:54.806Z,0.80
2022-08-07T08:16:42.716Z,0.70
2022-08-07T08:20:17.681Z,0.40
2022-08-07T08:22:36.733Z,0.50
2022-08-07T08:25:43.059Z,0.50
2022-08-07T08:28:37.681Z,0.30
2022-08-07T08:31:15.885Z,0.40
2022-08-07T08:33:49.621Z,0.50
2022-08-07T08:36:30.054Z,0.60
2022-08-07T08:39:02.065Z,0.60
2022-08-07T08:41:57.064Z,0.40
2022-08-07T08:45:13.481Z,0.60
2022-08-07T08:48:38.553Z,0.40
2022-08-07T08:51:26.005Z,0.50
2022-08-07T08:54:48.007Z,0.50
2022-08-07T08:57:42.457Z,0.50
2022-08-07T09:00:15.272Z,0.40
2022-08-07T09:03:07.550Z,0.40
2022-08-07T09:06:00.017Z,0.50
2022-08-07T09:08:49.881Z,0.40
2022-08-07T09:11:50.807Z,0.60
2022-08-07T09:14:39.143Z,0.50
2022-08-07T09:17:33.959Z,0.50
2022-08-07T09:20:43.002Z,0.40
2022-08-07T09:24:33.685Z,0.60
2022-08-07T09:26:57.076Z,0.40
2022-08-07T09:30:09.140Z,0.40
2022-08-07T09:32:55.046Z,0.30
2022-08-07T09:36:04.671Z,0.40
2022-08-07T09:38:43.766Z,0.40
2022-08-07T09:41:59.166Z,0.50
2022-08-07T09:47:25.193Z,0.40
2022-08-07T09:48:21.343Z,0.40
2022-08-07T09:52:16.132Z,0.30
2022-08-07T09:54:47.574Z,0.50
2022-08-07T09:57:46.865Z,0.30
2022-08-07T10:00:18.801Z,0.40
2022-08-07T10:04:05.164Z,0.60
2022-08-07T10:06:29.713Z,0.50
2022-08-07T10:09:34.538Z,0.50
2022-08-07T10:12:39.961Z,0.50
2022-08-07T10:15:44.010Z,0.50
2022-08-07T10:19:11.405Z,0.40
2022-08-07T10:22:16.941Z,0.50
2022-08-07T10:24:56.114Z,0.40
2022-08-07T10:28:16.586Z,0.40
2022-08-07T10:32:16.491Z,0.60
2022-08-07T10:35:53.550Z,0.60
2022-08-07T10:38:36.169Z,0.30
2022-08-07T10:41:51.633Z,0.30
2022-08-07T10:44:57.051Z,0.50
2022-08-07T10:48:02.784Z,0.50
2022-08-07T10:51:07.623Z,0.40
2022-08-07T10:54:23.654Z,0.50
2022-08-07T10:57:34.676Z,0.60
2022-08-07T11:00:39.466Z,0.60
2022-08-07T11:03:37.336Z,0.70
2022-08-07T11:06:22.134Z,0.30
2022-08-07T11:09:11.067Z,0.30
2022-08-07T11:12:31.267Z,0.30
2022-08-07T11:15:14.791Z,0.40
2022-08-07T11:18:03.767Z,0.40
2022-08-07T11:20:48.486Z,0.40
2022-08-07T11:23:30.724Z,0.50
2022-08-07T11:26:21.602Z,0.50
2022-08-07T11:29:05.724Z,0.40
2022-08-07T11:32:37.002Z,0.40
2022-08-07T11:35:26.888Z,0.50
2022-08-07T11:38:17.383Z,0.50
2022-08-07T11:41:22.099Z,0.50
2022-08-07T11:44:33.013Z,0.50
2022-08-07T11:47:39.154Z,0.60
2022-08-07T11:50:58.148Z,0.50
2022-08-07T11:54:01.771Z,0.50
2022-08-07T11:56:56.228Z,0.30
2022-08-07T12:00:19.288Z,0.40
2022-08-07T12:03:42.019Z,0.30
2022-08-07T12:06:39.477Z,0.50
2022-08-07T12:09:23.327Z,0.50
2022-08-07T12:12:12.103Z,0.50
2022-08-07T12:14:56.097Z,0.50
2022-08-07T12:17:59.598Z,0.40
2022-08-07T12:20:52.346Z,0.50
2022-08-07T12:24:06.881Z,0.30
2022-08-07T12:26:54.886Z,0.70
2022-08-07T12:29:41.614Z,0.30
2022-08-07T12:32:20.931Z,0.40
2022-08-07T12:34:56.224Z,0.50
2022-08-07T12:37:28.175Z,0.50
2022-08-07T12:40:47.882Z,0.30
2022-08-07T12:44:03.454Z,0.30
2022-08-07T12:46:34.835Z,0.30
2022-08-07T12:49:39.813Z,0.30
2022-08-07T12:52:18.052Z,0.50
2022-08-07T12:55:03.826Z,0.50
2022-08-07T12:58:01.349Z,0.40
2022-08-07T13:00:50.994Z,0.50
2022-08-07T13:03:56.169Z,0.30
2022-08-07T13:06:54.302Z,0.40
2022-08-07T13:10:38.086Z,0.50
2022-08-07T13:13:47.178Z,0.50
2022-08-07T13:16:25.083Z,0.60
2022-08-07T13:19:21.945Z,0.50
2022-08-07T13:22:19.946Z,0.70
2022-08-07T13:25:28.786Z,0.40
2022-08-07T13:28:11.161Z,0.40
2022-08-07T13:31:01.960Z,0.60
2022-08-07T13:34:30.191Z,0.50
2022-08-07T13:37:04.210Z,0.50
2022-08-07T13:40:35.499Z,0.60
2022-08-07T13:43:03.220Z,0.30
2022-08-07T13:46:10.873Z,0.50
2022-08-07T13:48:34.098Z,0.80
2022-08-07T13:51:27.371Z,0.50
2022-08-07T13:54:05.286Z,0.40
2022-08-07T13:56:41.291Z,0.40
2022-08-07T13:59:25.729Z,0.60
2022-08-07T14:02:10.435Z,0.50
2022-08-07T14:07:31.378Z,0.40
2022-08-07T14:10:21.814Z,0.40
2022-08-07T14:13:00.789Z,0.40
2022-08-07T14:15:37.084Z,0.30
2022-08-07T14:18:33.227Z,0.60
2022-08-07T14:21:21.222Z,0.50
2022-08-07T14:24:27.519Z,0.40
2022-08-07T14:27:00.734Z,0.30
2022-08-07T14:30:10.270Z,0.20
2022-08-07T14:32:48.074Z,0.20
2022-08-07T14:35:44.914Z,0.20
2022-08-07T14:38:30.359Z,0.20
2022-08-07T14:41:12.424Z,0.30
2022-08-07T14:43:57.211Z,0.10
2022-08-07T14:46:33.432Z,0.20
2022-08-07T14:49:17.343Z,0.20
2022-08-07T14:54:43.755Z,0.20
2022-08-07T15:00:08.255Z,0.40
2022-08-07T15:02:39.507Z,0.30
2022-08-07T15:05:20.303Z,0.50
2022-08-07T15:07:52.252Z,0.50
2022-08-07T15:10:26.897Z,0.50
2022-08-07T15:13:17.726Z,0.40
2022-08-07T15:15:53.603Z,0.40
2022-08-07T15:18:40.237Z,0.40
2022-08-07T15:21:58.539Z,0.40
2022-08-07T15:25:14.674Z,0.40
2022-08-07T15:27:29.021Z,0.70
2022-08-07T15:30:16.213Z,0.60
2022-08-07T15:33:01.184Z,0.60
2022-08-07T15:36:00.773Z,0.90
2022-08-07T15:38:50.987Z,0.70
2022-08-07T15:42:43.441Z,0.30
2022-08-07T15:44:20.359Z,0.80
2022-08-07T15:47:03.601Z,0.70
2022-08-07T15:50:05.347Z,0.70
2022-08-07T15:52:30.122Z,0.60
2022-08-07T15:55:04.059Z,0.80
2022-08-07T15:57:39.467Z,0.70
2022-08-07T16:00:31.749Z,0.80
2022-08-07T16:03:20.509Z,0.50
2022-08-07T16:05:53.501Z,0.80
2022-08-07T16:08:31.290Z,0.90
2022-08-07T16:11:40.091Z,0.80
2022-08-07T16:14:50.164Z,0.90
2022-08-07T16:18:02.820Z,0.70
2022-08-07T16:22:02.402Z,1.00
2022-08-07T16:24:34.886Z,0.70
2022-08-07T16:27:39.819Z,0.80
2022-08-07T16:30:30.376Z,0.70
2022-08-07T16:34:03.082Z,0.80
2022-08-07T16:36:20.762Z,1.00
2022-08-07T16:39:40.150Z,0.90
2022-08-07T16:42:51.213Z,0.80
2022-08-07T16:47:04.482Z,0.80
2022-08-07T16:50:28.246Z,0.70
2022-08-07T16:52:52.645Z,0.70
2022-08-07T16:56:20.727Z,0.70
2022-08-07T16:59:19.634Z,0.90
2022-08-07T17:02:15.093Z,0.90
2022-08-07T17:06:28.441Z,0.70
2022-08-07T17:09:08.815Z,1.00
2022-08-07T17:12:04.375Z,1.10
2022-08-07T17:14:53.090Z,0.80
2022-08-07T17:17:49.509Z,0.80
2022-08-07T17:20:31.783Z,0.70
2022-08-07T17:23:22.502Z,1.10
2022-08-07T17:26:22.592Z,0.80
2022-08-07T17:28:58.017Z,0.90
2022-08-07T17:32:03.249Z,1.10
2022-08-07T17:35:32.994Z,1.00
2022-08-07T17:38:05.736Z,1.00
2022-08-07T17:40:50.505Z,1.00
2022-08-07T17:44:00.948Z,1.00
2022-08-07T17:46:34.778Z,0.90
2022-08-07T17:49:44.954Z,1.20
2022-08-07T17:52:43.323Z,0.80
2022-08-07T17:55:16.488Z,1.10
2022-08-07T17:58:30.667Z,1.10
2022-08-07T18:01:20.664Z,1.10
2022-08-07T18:04:31.106Z,1.10
2022-08-07T18:07:20.199Z,0.90
2022-08-07T18:10:32.441Z,0.90
2022-08-07T18:13:20.374Z,1.10
2022-08-07T18:16:33.120Z,1.10
2022-08-07T18:21:06.590Z,1.40
2022-08-07T18:22:48.960Z,1.30
2022-08-07T18:25:40.307Z,1.50
2022-08-07T18:28:58.283Z,1.00
2022-08-07T18:31:50.357Z,1.10
2022-08-07T18:35:07.970Z,1.50
2022-08-07T18:38:55.332Z,1.20
2022-08-07T18:41:20.586Z,1.10
2022-08-07T18:44:25.394Z,1.40
2022-08-07T18:47:11.543Z,1.20
2022-08-07T18:50:40.754Z,1.30
2022-08-07T18:53:48.744Z,1.20
2022-08-07T18:56:58.244Z,0.90
2022-08-07T18:59:58.891Z,1.30
2022-08-07T19:02:42.454Z,1.20
2022-08-07T19:06:02.558Z,1.50
2022-08-07T19:08:55.941Z,1.70
2022-08-07T19:12:07.971Z,1.30
2022-08-07T19:14:55.202Z,1.50
2022-08-07T19:18:02.353Z,1.20
2022-08-07T19:21:08.296Z,1.20
2022-08-07T19:23:59.453Z,1.40
2022-08-07T19:28:28.367Z,1.50
2022-08-07T19:30:55.191Z,1.40
2022-08-07T19:32:39.466Z,1.40
2022-08-07T19:35:22.481Z,1.10
2022-08-07T19:37:58.436Z,1.20
2022-08-07T19:40:37.909Z,1.80
2022-08-07T19:43:50.006Z,5.10
2022-08-07T19:46:29.189Z,1.70
2022-08-07T19:49:19.149Z,1.30
2022-08-07T19:52:06.844Z,1.30
2022-08-07T19:54:56.548Z,1.40
2022-08-07T19:58:02.107Z,1.10
2022-08-07T20:00:29.801Z,1.20
2022-08-07T20:03:34.042Z,1.50
2022-08-07T20:06:03.888Z,1.50
2022-08-07T20:08:39.982Z,1.60
2022-08-07T20:11:34.295Z,1.70
2022-08-07T20:14:13.516Z,1.40
2022-08-07T20:16:54.254Z,1.10
2022-08-07T20:19:47.909Z,1.30
2022-08-07T20:22:29.340Z,1.40
2022-08-07T20:25:12.526Z,1.70
2022-08-07T20:27:54.361Z,2.00
2022-08-07T20:30:36.261Z,1.50
2022-08-07T20:33:09.090Z,1.90
2022-08-07T20:36:02.927Z,4.70
2022-08-07T20:38:33.318Z,1.50
2022-08-07T20:41:05.759Z,7.70
2022-08-07T20:43:35.390Z,2.20
2022-08-07T20:46:28.666Z,1.80
2022-08-07T20:49:58.337Z,1.70
2022-08-07T20:51:51.106Z,1.70
2022-08-07T20:54:30.023Z,1.60
2022-08-07T20:57:04.484Z,1.60
2022-08-07T21:00:07.669Z,1.80
2022-08-07T21:02:54.585Z,1.80
2022-08-07T21:05:55.882Z,2.10
2022-08-07T21:08:37.986Z,1.30
2022-08-07T21:11:14.305Z,1.30
2022-08-07T21:14:16.401Z,1.40
2022-08-07T21:17:06.675Z,1.50
2022-08-07T21:19:51.671Z,1.70
2022-08-07T21:22:44.942Z,1.50
2022-08-07T21:26:05.360Z,1.50
2022-08-07T21:28:51.154Z,1.20
2022-08-07T21:32:42.938Z,1.40
2022-08-07T21:34:48.889Z,1.50
2022-08-07T21:37:57.184Z,1.40
2022-08-07T21:40:47.651Z,1.60
2022-08-07T21:43:36.747Z,1.40
2022-08-07T21:46:31.787Z,1.60
2022-08-07T21:49:26.929Z,1.20
2022-08-07T21:52:13.236Z,1.20
2022-08-07T21:55:37.278Z,1.50
2022-08-07T21:58:53.013Z,1.70
2022-08-07T22:02:07.647Z,1.30
2022-08-07T22:04:31.715Z,1.60
2022-08-07T22:07:09.112Z,1.40
2022-08-07T22:09:53.798Z,1.40
2022-08-07T22:12:37.293Z,1.50
2022-08-07T22:16:38.995Z,1.60
2022-08-07T22:18:33.043Z,1.50
2022-08-07T22:22:01.774Z,1.50
2022-08-07T22:24:32.711Z,1.70
2022-08-07T22:27:18.821Z,2.70
2022-08-07T22:30:03.222Z,2.40
2022-08-07T22:33:12.312Z,2.40
2022-08-07T22:36:02.126Z,2.00
2022-08-07T22:38:59.309Z,2.00
2022-08-07T22:42:19.897Z,2.10
2022-08-07T22:45:02.439Z,1.90
2022-08-07T22:48:03.056Z,1.60
2022-08-07T22:51:15.506Z,1.90
2022-08-07T22:54:22.350Z,1.80
2022-08-07T22:57:33.987Z,1.70
2022-08-07T23:00:32.376Z,1.60
2022-08-07T23:03:28.455Z,1.60
2022-08-07T23:06:51.287Z,1.40
2022-08-07T23:10:37.327Z,1.40
2022-08-07T23:13:17.935Z,1.60
2022-08-07T23:16:07.028Z,1.50
2022-08-07T23:19:13.680Z,1.50
2022-08-07T23:22:21.765Z,1.70
2022-08-07T23:25:06.792Z,1.90
2022-08-07T23:28:20.294Z,1.50
2022-08-07T23:32:49.336Z,1.40
2022-08-07T23:34:51.594Z,1.60
2022-08-07T23:38:19.102Z,1.40
2022-08-07T23:42:05.297Z,1.60
2022-08-07T23:46:01.957Z,1.50
2022-08-07T23:48:11.955Z,1.40
2022-08-07T23:52:58.189Z,1.30
2022-08-07T23:54:44.253Z,1.50
2022-08-07T23:57:44.087Z,1.50
